Time;durP1;ratioP1;P1;durP2;ratioP2;P2;SDS_P1;SDS_P2;PMS_P1;PMS_P2;Temp;Humidity;BMP_temperature;BMP_pressure;BME280_temperature;BME280_humidity;BME280_pressure;Samples;Min_cycle;Max_cycle;Signal;HPM_P1;HPM_P2
2021/12/17 00:04:29;;;;;;;35.80;21.88;;;6.40;99.90;;;;;;4997189;28;20174;-84
2021/12/17 00:06:54;;;;;;;33.63;20.73;;;6.60;99.90;;;;;;4997764;28;20336;-89
2021/12/17 00:09:20;;;;;;;27.35;21.65;;;6.50;99.90;;;;;;4997013;28;20291;-78
2021/12/17 00:11:46;;;;;;;28.92;20.40;;;6.50;99.90;;;;;;4997026;28;20211;-84
2021/12/17 00:14:18;;;;;;;33.42;21.30;;;6.70;99.90;;;;;;4996828;28;20246;-84
2021/12/17 00:16:44;;;;;;;32.53;21.63;;;6.80;99.90;;;;;;4996946;28;20169;-87
2021/12/17 00:49:39;;;;;;;25.27;18.80;;;6.50;99.90;;;;;;4997090;28;20363;-86
2021/12/17 00:52:05;;;;;;;25.23;18.67;;;6.50;99.90;;;;;;4997020;28;20192;-81
2021/12/17 00:54:40;;;;;;;29.02;19.38;;;6.60;99.90;;;;;;4995415;28;20619;-79
2021/12/17 00:57:18;;;;;;;22.90;18.05;;;6.60;99.90;;;;;;4995993;28;20200;-83
2021/12/17 00:59:48;;;;;;;27.60;19.40;;;6.30;99.90;;;;;;4996455;28;20565;-83
2021/12/17 01:02:17;;;;;;;23.35;17.92;;;6.60;99.90;;;;;;4996260;28;20180;-82
2021/12/17 01:04:49;;;;;;;27.92;19.48;;;6.30;99.90;;;;;;4995867;28;20168;-81
2021/12/17 01:07:16;;;;;;;28.27;18.55;;;6.20;99.90;;;;;;4995652;28;20664;-85
2021/12/17 01:09:42;;;;;;;31.02;20.00;;;6.10;99.90;;;;;;4978088;28;20220;-85
2021/12/17 01:12:08;;;;;;;26.60;19.23;;;6.10;99.90;;;;;;4995477;28;20165;-83
2021/12/17 01:14:36;;;;;;;29.10;19.52;;;6.10;99.90;;;;;;4978138;28;20253;-79
2021/12/17 01:17:04;;;;;;;21.85;17.98;;;6.00;99.90;;;;;;4995863;28;20197;-85
2021/12/17 01:22:24;;;;;;;24.58;19.65;;;6.10;99.90;;;;;;4995724;28;20181;-81
2021/12/17 01:24:50;;;;;;;27.92;19.38;;;6.00;99.90;;;;;;4995457;28;20177;-84
2021/12/17 01:35:45;;;;;;;27.10;19.45;;;6.00;99.90;;;;;;4994102;28;20192;-78
2021/12/17 01:43:37;;;;;;;25.67;18.23;;;6.30;99.90;;;;;;4995829;28;20188;-81
2021/12/17 01:46:04;;;;;;;24.05;18.15;;;6.20;99.90;;;;;;4995438;28;20170;-87
2021/12/17 01:48:38;;;;;;;21.92;17.65;;;6.20;99.90;;;;;;4977530;28;20208;-87
2021/12/17 01:56:54;;;;;;;25.20;18.13;;;6.50;99.90;;;;;;4995076;28;20184;-83
2021/12/17 01:59:28;;;;;;;25.02;18.05;;;6.50;99.90;;;;;;4994928;28;20161;-82
2021/12/17 02:02:02;;;;;;;25.83;18.25;;;6.40;99.90;;;;;;4994884;28;20168;-84
2021/12/17 02:04:29;;;;;;;28.25;18.38;;;6.30;99.90;;;;;;4995086;28;20165;-78
2021/12/17 02:06:55;;;;;;;22.90;17.70;;;6.40;99.90;;;;;;4994706;28;20235;-80
2021/12/17 02:20:23;;;;;;;23.05;16.42;;;6.30;99.90;;;;;;4994634;28;20556;-82
2021/12/17 02:31:31;;;;;;;20.52;15.63;;;5.90;99.90;;;;;;4983071;28;20239;-84
2021/12/17 02:34:02;;;;;;;28.00;16.65;;;5.80;99.90;;;;;;4994600;28;20165;-84
2021/12/17 02:36:31;;;;;;;22.02;14.90;;;5.70;99.90;;;;;;4994737;28;20173;-78
2021/12/17 02:39:19;;;;;;;20.48;15.20;;;5.70;99.90;;;;;;4994468;28;20545;-83
2021/12/17 02:47:14;;;;;;;18.40;14.30;;;6.40;99.90;;;;;;4994594;28;20730;-81
2021/12/17 02:49:43;;;;;;;19.65;16.02;;;6.10;99.90;;;;;;4994450;28;20204;-85
2021/12/17 02:52:09;;;;;;;24.80;16.13;;;5.90;99.90;;;;;;4994545;28;20169;-82
2021/12/17 02:54:36;;;;;;;29.13;15.43;;;5.90;99.90;;;;;;4993888;28;20165;-79
2021/12/17 02:57:05;;;;;;;25.85;14.50;;;6.00;99.90;;;;;;4994050;28;20233;-80
2021/12/17 02:59:34;;;;;;;22.08;15.88;;;6.20;99.90;;;;;;4994184;28;20173;-86
2021/12/17 03:02:01;;;;;;;23.35;14.75;;;6.30;99.90;;;;;;4994044;28;20172;-87
2021/12/17 03:04:28;;;;;;;19.35;13.20;;;6.30;99.90;;;;;;4994147;28;20173;-78
2021/12/17 03:06:55;;;;;;;24.15;15.05;;;6.50;99.90;;;;;;4993707;28;20173;-82
2021/12/17 03:09:32;;;;;;;28.25;16.15;;;6.70;99.90;;;;;;4976450;28;20221;-80
2021/12/17 03:11:57;;;;;;;23.92;15.68;;;6.50;99.90;;;;;;4977993;28;20172;-85
2021/12/17 03:14:25;;;;;;;31.80;16.70;;;6.50;99.90;;;;;;4993844;28;20165;-80
2021/12/17 03:17:01;;;;;;;45.88;17.38;;;6.60;99.90;;;;;;4994127;28;20224;-82
2021/12/17 03:24:55;;;;;;;42.30;17.90;;;7.20;99.90;;;;;;4973294;28;20181;-76
2021/12/17 03:27:21;;;;;;;47.42;17.95;;;7.30;99.90;;;;;;4979383;28;20193;-76
2021/12/17 03:29:46;;;;;;;52.63;18.63;;;7.40;99.90;;;;;;4992708;28;20679;-76
2021/12/17 03:32:12;;;;;;;48.58;17.33;;;7.20;99.90;;;;;;4992771;28;20200;-77
2021/12/17 03:34:37;;;;;;;66.30;18.77;;;7.10;99.90;;;;;;4992707;28;20212;-76
2021/12/17 03:37:03;;;;;;;56.97;19.55;;;7.20;99.90;;;;;;4994244;28;20694;-76
2021/12/17 03:39:30;;;;;;;35.58;18.38;;;7.10;99.90;;;;;;4995910;28;20165;-76
2021/12/17 03:41:57;;;;;;;48.38;17.13;;;7.40;99.90;;;;;;4996727;28;20188;-76
2021/12/17 03:44:23;;;;;;;45.92;18.80;;;7.50;99.90;;;;;;4996351;28;20577;-76
2021/12/17 03:46:51;;;;;;;49.55;18.17;;;7.70;99.90;;;;;;4996450;28;20260;-76
2021/12/17 03:49:18;;;;;;;52.95;18.20;;;7.60;99.90;;;;;;4996482;28;20554;-76
2021/12/17 03:52:04;;;;;;;58.20;17.65;;;7.50;99.90;;;;;;4996585;28;20177;-76
2021/12/17 03:54:30;;;;;;;44.33;18.40;;;7.30;99.90;;;;;;4996079;28;20636;-76
2021/12/17 03:56:56;;;;;;;48.05;16.33;;;7.20;99.90;;;;;;4996331;28;20200;-76
2021/12/17 03:59:21;;;;;;;39.65;16.85;;;7.10;99.90;;;;;;4996541;28;20581;-76
2021/12/17 04:01:47;;;;;;;50.90;16.77;;;7.20;99.90;;;;;;4996317;28;20204;-76
2021/12/17 04:04:12;;;;;;;47.80;15.75;;;7.30;99.90;;;;;;4995952;28;20169;-76
2021/12/17 04:06:39;;;;;;;33.25;16.33;;;7.40;99.90;;;;;;4995948;28;20635;-75
2021/12/17 04:09:05;;;;;;;44.72;17.45;;;7.40;99.90;;;;;;4978446;28;20292;-76
2021/12/17 04:11:32;;;;;;;31.50;16.67;;;7.30;99.90;;;;;;4996065;28;20169;-77
2021/12/17 04:13:58;;;;;;;26.80;16.08;;;7.30;99.90;;;;;;4995828;28;20164;-76
2021/12/17 04:16:29;;;;;;;34.38;17.70;;;7.50;99.90;;;;;;4995706;28;20215;-76
2021/12/17 04:18:55;;;;;;;37.78;16.35;;;7.80;99.90;;;;;;4995817;28;20343;-75
2021/12/17 04:21:21;;;;;;;40.00;18.40;;;8.10;99.90;;;;;;4995356;28;20707;-76
2021/12/17 04:23:48;;;;;;;36.45;16.98;;;7.90;99.90;;;;;;4995727;28;20263;-79
2021/12/17 04:26:18;;;;;;;33.80;16.65;;;7.80;99.90;;;;;;4978162;28;20537;-76
2021/12/17 04:28:47;;;;;;;21.73;14.73;;;7.90;99.90;;;;;;4995760;28;20189;-76
2021/12/17 04:31:14;;;;;;;51.22;14.45;;;8.00;99.90;;;;;;4995763;28;20173;-76
2021/12/17 04:33:42;;;;;;;48.90;16.48;;;8.00;99.90;;;;;;4995647;28;20247;-77
2021/12/17 04:36:09;;;;;;;28.38;15.80;;;8.00;99.90;;;;;;4995591;28;20176;-77
2021/12/17 04:38:35;;;;;;;33.25;13.90;;;7.90;99.90;;;;;;4995182;28;20235;-77
2021/12/17 04:41:36;;;;;;;32.97;14.55;;;7.70;99.90;;;;;;4978009;28;20176;-77
2021/12/17 04:59:44;;;;;;;26.13;13.82;;;7.80;99.90;;;;;;4995109;28;20205;-77
2021/12/17 05:02:10;;;;;;;28.77;13.07;;;8.00;99.90;;;;;;4995198;28;20207;-78
2021/12/17 05:04:37;;;;;;;24.13;13.30;;;8.10;99.90;;;;;;4995172;28;20165;-77
2021/12/17 05:07:03;;;;;;;24.17;14.68;;;8.10;99.90;;;;;;4995066;28;20204;-78
2021/12/17 05:09:44;;;;;;;33.25;13.75;;;8.10;99.90;;;;;;4995077;28;20335;-77
2021/12/17 05:20:34;;;;;;;34.63;14.60;;;7.50;99.90;;;;;;4994468;28;20216;-77
2021/12/17 05:23:00;;;;;;;26.60;14.13;;;7.20;99.90;;;;;;4993933;28;20195;-80
2021/12/17 05:25:27;;;;;;;38.20;13.85;;;7.10;99.90;;;;;;4994454;28;20170;-77
2021/12/17 05:27:55;;;;;;;37.88;13.45;;;7.20;99.90;;;;;;4994505;28;20539;-77
2021/12/17 05:30:22;;;;;;;46.70;14.70;;;7.20;99.90;;;;;;4994564;28;20208;-77
2021/12/17 05:32:47;;;;;;;25.92;13.77;;;7.00;99.90;;;;;;4994340;28;20165;-78
2021/12/17 05:35:13;;;;;;;30.40;13.73;;;6.90;99.90;;;;;;4994269;28;20169;-82
2021/12/17 05:37:39;;;;;;;52.90;15.55;;;6.90;99.90;;;;;;4994205;28;20189;-78
2021/12/17 05:40:05;;;;;;;41.60;17.02;;;6.70;99.90;;;;;;4994053;28;20703;-77
2021/12/17 05:42:31;;;;;;;32.72;15.32;;;6.90;99.90;;;;;;4994075;28;20173;-77
2021/12/17 05:45:06;;;;;;;50.40;15.57;;;7.10;99.90;;;;;;4994749;28;20548;-77
2021/12/17 05:47:31;;;;;;;37.95;14.80;;;7.00;99.90;;;;;;4994197;28;20189;-77
2021/12/17 05:49:57;;;;;;;42.75;13.55;;;6.90;99.90;;;;;;4994347;28;20711;-81
2021/12/17 05:52:22;;;;;;;29.70;13.63;;;6.70;99.90;;;;;;4994725;28;20176;-77
2021/12/17 05:54:48;;;;;;;36.40;12.57;;;6.50;99.90;;;;;;4993763;28;20207;-79
2021/12/17 05:57:14;;;;;;;56.45;13.63;;;6.50;99.90;;;;;;4993665;28;20532;-77
2021/12/17 05:59:39;;;;;;;35.55;12.32;;;6.20;99.90;;;;;;4992938;28;20213;-77
2021/12/17 06:02:10;;;;;;;29.88;13.60;;;6.20;99.90;;;;;;4993583;28;20169;-78
2021/12/17 06:04:36;;;;;;;54.45;14.32;;;6.30;99.90;;;;;;4993626;28;20196;-77
2021/12/17 06:07:01;;;;;;;33.25;14.90;;;6.40;99.90;;;;;;4993633;28;20226;-77
2021/12/17 06:09:27;;;;;;;142.13;62.78;;;6.20;99.90;;;;;;4993474;28;20300;-77
2021/12/17 06:11:52;;;;;;;46.63;17.02;;;6.40;99.90;;;;;;4993696;28;20177;-77
2021/12/17 06:14:18;;;;;;;52.30;18.70;;;6.60;99.90;;;;;;4993416;28;20204;-77
2021/12/17 06:16:44;;;;;;;47.78;17.05;;;6.80;99.90;;;;;;4993321;28;20172;-76
2021/12/17 06:19:09;;;;;;;50.05;19.10;;;6.90;99.90;;;;;;4993027;28;20534;-76
2021/12/17 06:21:35;;;;;;;89.82;30.65;;;6.90;99.90;;;;;;4993291;28;20173;-77
2021/12/17 06:24:00;;;;;;;47.92;19.00;;;6.80;99.90;;;;;;4993397;28;20177;-78
2021/12/17 06:26:26;;;;;;;67.88;21.42;;;6.40;99.90;;;;;;4993450;28;20193;-76
2021/12/17 06:28:52;;;;;;;66.43;19.35;;;6.30;99.90;;;;;;4993169;28;20193;-75
2021/12/17 06:31:19;;;;;;;52.10;20.05;;;6.30;99.90;;;;;;4975565;28;20269;-78
2021/12/17 06:33:46;;;;;;;75.25;18.88;;;6.30;99.90;;;;;;4993237;28;21444;-78
2021/12/17 06:36:11;;;;;;;56.40;18.67;;;6.30;99.90;;;;;;4993116;28;20624;-78
2021/12/17 06:38:37;;;;;;;55.30;18.15;;;6.40;99.90;;;;;;4992479;28;20215;-77
2021/12/17 06:41:03;;;;;;;64.93;17.73;;;6.60;99.90;;;;;;4992498;28;20607;-78
2021/12/17 06:43:36;;;;;;;63.50;16.42;;;6.70;99.90;;;;;;4992415;28;20195;-78
2021/12/17 06:48:40;;;;;;;57.00;18.08;;;6.50;99.90;;;;;;4992359;28;20290;-78
2021/12/17 06:59:21;;;;;;;39.33;17.85;;;6.40;99.90;;;;;;4992634;28;20177;-78
2021/12/17 07:18:43;;;;;;;55.67;17.70;;;6.60;99.90;;;;;;4992773;28;20199;-78
2021/12/17 07:23:08;;;;;;;47.65;16.92;;;6.60;99.90;;;;;;4992507;28;20200;-77
2021/12/17 07:28:51;;;;;;;42.90;17.35;;;6.70;99.90;;;;;;4993223;28;20200;-77
2021/12/17 07:33:59;;;;;;;67.70;17.70;;;6.60;99.90;;;;;;4992518;28;20173;-78
2021/12/17 07:36:25;;;;;;;52.35;17.15;;;6.70;99.90;;;;;;4992152;28;20184;-77
2021/12/17 07:38:51;;;;;;;62.17;19.45;;;6.80;99.90;;;;;;4993667;28;20202;-77
2021/12/17 07:41:18;;;;;;;61.65;17.95;;;6.80;99.90;;;;;;4991973;28;20268;-77
2021/12/17 07:43:55;;;;;;;75.88;19.02;;;7.00;99.90;;;;;;4992269;28;20180;-76
2021/12/17 07:46:23;;;;;;;71.57;19.85;;;7.10;99.90;;;;;;4975175;28;20184;-79
2021/12/17 07:48:50;;;;;;;69.53;20.17;;;6.90;99.90;;;;;;4991430;28;20182;-77
2021/12/17 07:51:18;;;;;;;62.65;20.48;;;7.00;99.90;;;;;;4992569;28;20173;-78
2021/12/17 07:53:45;;;;;;;75.47;19.60;;;7.20;99.90;;;;;;4991574;28;20269;-77
2021/12/17 07:56:14;;;;;;;70.70;20.73;;;7.20;99.90;;;;;;4989865;28;20169;-77
2021/12/17 07:58:41;;;;;;;58.67;18.98;;;7.30;99.90;;;;;;4987611;28;20244;-82
2021/12/17 08:01:10;;;;;;;66.20;20.73;;;7.30;99.90;;;;;;4992920;28;20686;-81
2021/12/17 08:03:36;;;;;;;91.28;18.42;;;7.40;99.90;;;;;;4974762;28;20211;-80
2021/12/17 08:06:02;;;;;;;69.93;19.65;;;7.50;99.90;;;;;;4992421;28;20162;-78
2021/12/17 08:08:28;;;;;;;64.43;18.90;;;7.40;99.90;;;;;;4992617;28;20201;-78
2021/12/17 08:10:54;;;;;;;57.85;19.48;;;7.50;99.90;;;;;;4992767;28;20236;-79
2021/12/17 08:13:24;;;;;;;60.83;19.73;;;7.50;99.90;;;;;;4992174;28;20169;-78
2021/12/17 08:16:10;;;;;;;63.72;21.27;;;7.50;99.90;;;;;;4992169;28;20587;-78
2021/12/17 08:27:09;;;;;;;75.20;20.67;;;7.80;99.90;;;;;;4995331;28;20632;-80
2021/12/17 08:29:51;;;;;;;60.33;20.45;;;8.00;99.90;;;;;;4995444;28;20636;-77
2021/12/17 08:32:17;;;;;;;67.85;21.48;;;8.20;99.90;;;;;;4996205;28;20212;-77
2021/12/17 08:34:42;;;;;;;74.63;20.80;;;8.30;99.90;;;;;;4979380;28;20169;-77
2021/12/17 08:37:08;;;;;;;65.97;20.15;;;8.50;99.90;;;;;;4998945;28;20260;-77
2021/12/17 08:39:34;;;;;;;56.53;20.08;;;8.70;99.90;;;;;;4997780;28;20180;-77
2021/12/17 08:42:00;;;;;;;82.35;20.80;;;8.60;99.90;;;;;;4995296;28;20169;-79
2021/12/17 08:44:26;;;;;;;72.13;20.88;;;8.70;99.90;;;;;;4995563;28;20250;-77
2021/12/17 08:46:52;;;;;;;72.20;20.85;;;8.70;99.90;;;;;;4995212;28;20161;-77
2021/12/17 08:49:18;;;;;;;71.45;21.52;;;8.80;99.90;;;;;;4995109;28;20558;-79
2021/12/17 08:51:44;;;;;;;66.80;20.80;;;8.80;99.90;;;;;;4994692;28;20180;-76
2021/12/17 08:54:10;;;;;;;61.92;19.45;;;8.80;99.90;;;;;;4994930;28;20571;-82
2021/12/17 08:56:42;;;;;;;72.78;23.00;;;8.90;99.90;;;;;;4995079;28;20169;-76
2021/12/17 08:59:08;;;;;;;82.00;23.15;;;8.80;99.90;;;;;;4995038;28;20176;-77
2021/12/17 09:01:34;;;;;;;86.47;23.08;;;9.00;99.90;;;;;;4995074;28;20240;-76
2021/12/17 09:04:01;;;;;;;73.20;21.52;;;9.20;99.90;;;;;;4994974;28;20173;-76
2021/12/17 09:06:28;;;;;;;71.35;20.92;;;9.00;99.90;;;;;;4995203;28;20208;-76
2021/12/17 09:08:55;;;;;;;87.85;23.55;;;8.80;99.90;;;;;;4994583;28;20272;-76
2021/12/17 09:11:24;;;;;;;78.03;23.38;;;8.90;99.90;;;;;;4994465;28;20189;-80
2021/12/17 09:13:51;;;;;;;77.28;21.95;;;9.00;99.90;;;;;;4994596;28;20707;-78
2021/12/17 09:16:20;;;;;;;81.30;21.13;;;9.10;99.90;;;;;;4994630;28;20205;-81
2021/12/17 09:18:50;;;;;;;78.90;21.63;;;8.80;99.90;;;;;;4994720;28;20216;-82
2021/12/17 09:21:16;;;;;;;69.32;20.30;;;8.60;99.90;;;;;;4995469;28;20706;-75
2021/12/17 09:23:42;;;;;;;70.97;21.15;;;8.50;99.90;;;;;;4995232;28;20170;-81
2021/12/17 09:26:10;;;;;;;74.40;23.08;;;8.40;99.90;;;;;;5004817;28;20164;-78
2021/12/17 09:28:35;;;;;;;71.05;22.65;;;8.30;99.90;;;;;;5004697;28;20248;-79
2021/12/17 09:31:01;;;;;;;70.15;20.48;;;8.50;99.90;;;;;;5002840;28;20201;-77
2021/12/17 09:33:26;;;;;;;76.78;22.42;;;8.50;99.90;;;;;;5003807;28;20514;-82
2021/12/17 09:35:52;;;;;;;67.97;21.90;;;8.60;99.90;;;;;;5003201;28;20252;-78
2021/12/17 09:38:19;;;;;;;70.68;22.35;;;8.40;99.90;;;;;;4994770;28;20331;-78
2021/12/17 09:40:45;;;;;;;57.83;21.25;;;8.40;99.90;;;;;;4993962;28;20173;-77
2021/12/17 09:43:11;;;;;;;71.13;22.75;;;8.60;99.90;;;;;;4994346;28;20244;-78
2021/12/17 09:45:37;;;;;;;62.33;21.60;;;8.90;99.90;;;;;;4994330;28;20248;-80
2021/12/17 09:48:03;;;;;;;58.60;20.80;;;9.00;99.90;;;;;;4994287;28;20216;-78
2021/12/17 09:50:29;;;;;;;70.88;21.65;;;8.80;99.90;;;;;;4993692;28;20200;-78
2021/12/17 09:52:56;;;;;;;64.35;21.80;;;8.50;99.90;;;;;;4993332;28;20256;-78
2021/12/17 09:55:22;;;;;;;70.65;23.40;;;8.70;99.90;;;;;;4993716;28;20173;-77
2021/12/17 09:57:47;;;;;;;69.20;21.42;;;8.80;99.90;;;;;;4994130;28;20687;-77
2021/12/17 10:00:17;;;;;;;63.08;22.73;;;9.00;99.90;;;;;;4994009;28;20248;-79
2021/12/17 10:02:44;;;;;;;61.90;21.70;;;9.10;99.90;;;;;;4993856;28;20647;-83
2021/12/17 10:05:20;;;;;;;67.97;23.38;;;9.20;99.90;;;;;;4993845;28;20204;-80
2021/12/17 10:07:52;;;;;;;63.40;24.15;;;9.20;99.90;;;;;;4976253;28;20189;-77
2021/12/17 10:10:17;;;;;;;65.97;22.17;;;9.10;99.90;;;;;;4976088;28;20204;-77
2021/12/17 10:12:44;;;;;;;74.13;23.70;;;8.90;99.90;;;;;;4993794;28;20188;-77
2021/12/17 10:15:10;;;;;;;61.40;22.25;;;8.70;99.90;;;;;;4993819;28;20185;-78
2021/12/17 10:17:58;;;;;;;63.00;21.73;;;8.60;99.90;;;;;;4993556;28;20604;-78
2021/12/17 10:20:25;;;;;;;72.32;22.95;;;8.40;99.90;;;;;;4979594;28;20181;-77
2021/12/17 10:23:11;;;;;;;72.45;23.63;;;8.30;99.90;;;;;;4992899;28;20596;-77
2021/12/17 10:25:42;;;;;;;65.18;23.67;;;8.60;99.90;;;;;;4992673;28;20193;-77
2021/12/17 10:28:07;;;;;;;70.57;24.33;;;8.80;99.90;;;;;;4992794;28;20259;-78
2021/12/17 10:30:36;;;;;;;67.07;25.08;;;9.00;99.90;;;;;;4993299;28;20287;-77
2021/12/17 10:33:05;;;;;;;62.97;24.23;;;9.00;99.90;;;;;;4993105;28;20188;-83
2021/12/17 10:35:33;;;;;;;79.20;25.92;;;8.80;99.90;;;;;;4993279;28;20169;-82
2021/12/17 10:38:05;;;;;;;76.82;23.58;;;8.70;99.90;;;;;;4992800;28;20262;-77
2021/12/17 10:40:48;;;;;;;83.85;25.63;;;8.80;99.90;;;;;;4993150;28;20185;-75
2021/12/17 10:45:59;;;;;;;69.68;24.95;;;9.00;99.90;;;;;;4993565;28;20529;-77
2021/12/17 10:50:58;;;;;;;74.97;25.15;;;9.20;99.90;;;;;;4992989;28;20216;-75
2021/12/17 10:53:25;;;;;;;77.00;25.63;;;9.10;99.90;;;;;;4992937;28;20239;-75
2021/12/17 10:55:52;;;;;;;77.45;23.73;;;9.20;99.90;;;;;;4992969;28;20169;-75
2021/12/17 10:58:17;;;;;;;80.93;26.77;;;9.40;99.90;;;;;;4992786;28;20185;-77
2021/12/17 11:00:54;;;;;;;87.38;25.23;;;9.50;99.90;;;;;;4993054;28;20171;-77
2021/12/17 11:03:19;;;;;;;85.15;27.10;;;9.30;99.90;;;;;;4994132;28;20648;-76
2021/12/17 11:05:45;;;;;;;75.50;23.77;;;9.30;99.90;;;;;;4992838;28;20173;-77
2021/12/17 11:08:20;;;;;;;82.43;24.50;;;9.20;99.90;;;;;;4992850;28;20244;-77
2021/12/17 11:10:57;;;;;;;82.78;24.85;;;9.10;99.90;;;;;;4991913;28;20532;-77
2021/12/17 11:13:23;;;;;;;77.15;24.80;;;9.30;99.90;;;;;;4992480;28;20560;-76
2021/12/17 11:15:50;;;;;;;67.18;24.92;;;9.30;99.90;;;;;;4992834;28;20219;-77
2021/12/17 11:18:16;;;;;;;85.88;26.05;;;9.30;99.90;;;;;;4992639;28;20188;-78
2021/12/17 11:20:42;;;;;;;87.38;26.50;;;9.30;99.90;;;;;;4992621;28;20195;-76
2021/12/17 11:23:12;;;;;;;98.53;25.20;;;9.20;99.90;;;;;;4992282;28;20319;-76
2021/12/17 11:25:41;;;;;;;82.13;25.33;;;9.10;99.90;;;;;;4992398;28;20169;-77
2021/12/17 11:28:08;;;;;;;89.97;26.65;;;9.00;99.90;;;;;;4992431;28;20189;-76
2021/12/17 11:30:37;;;;;;;90.93;26.88;;;9.20;99.90;;;;;;4992637;28;20295;-78
2021/12/17 11:33:04;;;;;;;91.97;26.45;;;9.40;99.90;;;;;;4992438;28;20243;-77
2021/12/17 11:35:32;;;;;;;86.75;25.92;;;9.30;99.90;;;;;;4992658;28;20197;-76
2021/12/17 11:38:02;;;;;;;86.47;24.75;;;9.20;99.90;;;;;;4992461;28;20181;-83
2021/12/17 11:40:40;;;;;;;85.95;24.85;;;9.20;99.90;;;;;;4992657;28;20193;-82
2021/12/17 11:43:15;;;;;;;95.18;26.35;;;9.50;99.90;;;;;;4992536;28;20538;-76
2021/12/17 11:45:43;;;;;;;87.97;26.70;;;9.50;99.90;;;;;;4991942;28;20176;-80
2021/12/17 11:48:19;;;;;;;96.50;26.65;;;9.60;99.90;;;;;;4992419;28;20206;-76
2021/12/17 11:51:04;;;;;;;81.72;25.08;;;9.70;99.90;;;;;;4992479;28;20232;-76
2021/12/17 11:53:29;;;;;;;97.05;25.15;;;9.60;99.90;;;;;;4992236;28;20539;-79
2021/12/17 11:56:00;;;;;;;79.55;24.42;;;9.70;99.90;;;;;;4991481;28;20165;-78
2021/12/17 11:58:42;;;;;;;89.40;26.30;;;9.80;99.90;;;;;;4994318;28;20185;-77
2021/12/17 12:01:08;;;;;;;85.70;25.42;;;10.00;99.90;;;;;;4995586;28;20227;-81
2021/12/17 12:03:34;;;;;;;81.65;26.00;;;10.00;99.90;;;;;;4996092;28;20640;-80
2021/12/17 12:06:00;;;;;;;84.50;24.92;;;10.00;99.90;;;;;;4978260;28;20202;-77
2021/12/17 12:08:47;;;;;;;77.30;24.33;;;9.90;99.90;;;;;;4995482;28;20726;-77
2021/12/17 12:11:28;;;;;;;90.90;25.00;;;9.90;99.90;;;;;;4995778;28;20252;-76
2021/12/17 12:13:55;;;;;;;87.25;25.85;;;10.10;99.90;;;;;;4977934;28;20215;-78
2021/12/17 12:16:26;;;;;;;93.40;27.35;;;10.20;99.90;;;;;;4977648;28;20264;-81
2021/12/17 12:18:54;;;;;;;83.28;23.67;;;10.30;99.90;;;;;;4995455;28;20197;-82
2021/12/17 12:21:23;;;;;;;82.25;24.35;;;10.10;99.90;;;;;;4995766;28;20211;-76
2021/12/17 12:23:57;;;;;;;88.72;24.27;;;9.80;99.90;;;;;;4995195;28;20179;-77
2021/12/17 12:26:27;;;;;;;79.03;24.67;;;9.80;99.90;;;;;;4977612;28;20168;-77
2021/12/17 12:29:05;;;;;;;74.60;23.50;;;9.70;99.90;;;;;;4994915;28;20193;-77
2021/12/17 12:31:35;;;;;;;74.00;21.70;;;9.60;99.90;;;;;;4993534;28;20173;-76
2021/12/17 12:36:50;;;;;;;76.68;22.85;;;9.80;99.90;;;;;;4995604;28;20177;-76
2021/12/17 12:39:20;;;;;;;62.42;21.65;;;9.90;99.90;;;;;;4977950;28;20188;-78
2021/12/17 12:41:55;;;;;;;71.53;24.00;;;9.80;99.90;;;;;;4995197;28;20200;-77
2021/12/17 12:44:44;;;;;;;66.28;22.73;;;9.80;99.90;;;;;;4995533;28;20177;-78
2021/12/17 12:47:10;;;;;;;68.47;21.88;;;10.00;99.90;;;;;;4995109;28;20204;-77
2021/12/17 12:49:46;;;;;;;63.47;21.98;;;9.80;99.90;;;;;;4994479;28;20201;-76
2021/12/17 12:52:24;;;;;;;68.82;24.38;;;10.00;99.90;;;;;;4995158;28;20168;-77
2021/12/17 12:54:57;;;;;;;67.90;22.50;;;10.00;99.90;;;;;;4995304;28;20248;-75
2021/12/17 12:57:29;;;;;;;70.65;25.02;;;9.80;99.90;;;;;;4978304;28;20251;-77
2021/12/17 12:59:59;;;;;;;77.00;23.92;;;10.00;99.90;;;;;;4996364;28;20228;-77
2021/12/17 13:02:26;;;;;;;66.82;24.02;;;9.80;99.90;;;;;;4997418;28;20176;-78
2021/12/17 13:04:57;;;;;;;63.33;22.35;;;10.00;99.90;;;;;;4997705;28;20636;-78
2021/12/17 13:07:47;;;;;;;64.50;23.88;;;9.90;99.90;;;;;;4998546;28;20213;-77
2021/12/17 13:10:22;;;;;;;70.38;23.23;;;9.90;99.90;;;;;;4996257;28;20212;-77
2021/12/17 13:12:52;;;;;;;62.05;20.60;;;10.00;99.90;;;;;;4995171;28;20215;-77
2021/12/17 13:23:50;;;;;;;62.85;22.35;;;9.70;99.90;;;;;;4999278;28;20196;-76
2021/12/17 13:26:17;;;;;;;73.47;20.88;;;9.60;99.90;;;;;;4997647;28;20169;-78
2021/12/17 13:29:06;;;;;;;63.72;22.75;;;9.60;99.90;;;;;;4994804;28;20182;-80
2021/12/17 13:31:50;;;;;;;68.30;24.05;;;9.80;99.90;;;;;;4994397;28;20173;-80
2021/12/17 13:34:18;;;;;;;58.28;22.95;;;10.00;99.90;;;;;;4994280;28;20192;-76
2021/12/17 13:37:04;;;;;;;70.95;23.67;;;10.00;99.90;;;;;;4993756;28;20702;-77
2021/12/17 13:39:38;;;;;;;60.38;22.38;;;10.00;99.90;;;;;;4993810;28;20252;-78
2021/12/17 13:42:09;;;;;;;60.85;22.90;;;10.00;99.90;;;;;;4993912;28;20567;-77
2021/12/17 13:44:45;;;;;;;71.30;22.52;;;9.90;99.90;;;;;;4993761;28;20205;-78
2021/12/17 13:47:14;;;;;;;74.65;22.48;;;9.80;99.90;;;;;;4993850;28;20552;-77
2021/12/17 13:49:49;;;;;;;60.15;20.95;;;9.80;99.90;;;;;;4986402;28;20207;-80
2021/12/17 13:52:16;;;;;;;54.63;20.40;;;9.70;99.90;;;;;;4990623;28;21616;-77
2021/12/17 13:54:45;;;;;;;65.63;21.50;;;9.70;99.90;;;;;;4993733;28;20180;-78
2021/12/17 13:57:14;;;;;;;56.65;21.35;;;9.90;99.90;;;;;;4993389;28;20185;-80
2021/12/17 13:59:40;;;;;;;68.55;21.95;;;9.90;99.90;;;;;;4993033;28;20175;-77
2021/12/17 14:02:18;;;;;;;59.80;21.40;;;9.70;99.90;;;;;;4992676;28;20256;-80
2021/12/17 14:05:00;;;;;;;63.13;21.67;;;9.50;99.90;;;;;;4994118;28;20177;-79
2021/12/17 14:07:29;;;;;;;72.60;23.23;;;9.60;99.90;;;;;;4993789;28;20251;-77
2021/12/17 14:10:30;;;;;;;61.67;21.38;;;9.70;99.90;;;;;;4975989;28;20208;-79
2021/12/17 14:12:55;;;;;;;53.35;20.70;;;9.70;99.90;;;;;;4989280;28;20178;-78
2021/12/17 14:15:27;;;;;;;62.88;21.30;;;9.80;99.90;;;;;;4993464;28;20184;-79
2021/12/17 14:17:58;;;;;;;60.03;21.35;;;9.80;99.90;;;;;;4993051;28;20217;-77
2021/12/17 14:20:27;;;;;;;62.88;21.58;;;9.90;99.90;;;;;;4992197;28;20622;-77
2021/12/17 14:23:05;;;;;;;68.13;21.75;;;9.90;99.90;;;;;;4992525;28;20561;-77
2021/12/17 14:25:39;;;;;;;73.95;22.73;;;10.00;99.90;;;;;;4992909;28;20180;-77
2021/12/17 14:28:10;;;;;;;70.20;22.27;;;9.80;99.90;;;;;;4993088;28;20646;-78
2021/12/17 14:30:37;;;;;;;61.95;21.30;;;9.60;99.90;;;;;;4990257;28;20213;-79
2021/12/17 14:33:09;;;;;;;72.05;22.20;;;9.70;99.90;;;;;;4989836;28;20169;-80
2021/12/17 14:35:56;;;;;;;81.53;23.38;;;9.70;99.90;;;;;;4993147;28;20652;-77
2021/12/17 14:38:53;;;;;;;70.07;21.13;;;9.70;99.90;;;;;;4993251;28;20189;-81
2021/12/17 14:41:27;;;;;;;63.15;23.05;;;9.60;99.90;;;;;;4992809;28;20215;-78
2021/12/17 14:44:07;;;;;;;77.03;23.98;;;9.50;99.90;;;;;;4992233;28;20255;-77
2021/12/17 14:46:49;;;;;;;76.00;22.20;;;9.60;99.90;;;;;;4987813;28;20231;-77
2021/12/17 15:04:03;;;;;;;99.38;23.98;;;9.40;99.90;;;;;;4993053;28;20207;-76
2021/12/17 15:06:12;;;;;;;105.03;25.98;;;9.40;99.90;;;;;;4984758;28;20189;-79
2021/12/17 15:08:39;;;;;;;58.20;20.13;;;9.40;99.90;;;;;;4990610;28;20559;-78
2021/12/17 15:11:25;;;;;;;59.80;21.15;;;9.50;99.90;;;;;;4992722;28;20201;-79
2021/12/17 15:13:52;;;;;;;55.53;20.85;;;9.50;99.90;;;;;;4991571;28;20540;-79
2021/12/17 15:16:17;;;;;;;59.17;21.52;;;9.70;99.90;;;;;;4992055;28;20176;-80
2021/12/17 15:18:45;;;;;;;64.18;22.52;;;9.60;99.90;;;;;;4992414;28;20190;-76
2021/12/17 15:21:10;;;;;;;55.88;21.38;;;9.40;99.90;;;;;;4992628;28;20173;-78
2021/12/17 15:23:36;;;;;;;60.75;21.65;;;9.40;99.90;;;;;;4992226;28;20231;-81
2021/12/17 15:26:03;;;;;;;69.68;21.65;;;9.40;99.90;;;;;;4990828;28;20179;-81
2021/12/17 15:28:28;;;;;;;67.03;22.63;;;9.60;99.90;;;;;;4991679;28;20193;-78
2021/12/17 15:31:02;;;;;;;62.58;22.85;;;9.70;99.90;;;;;;4992587;28;20205;-80
2021/12/17 15:33:28;;;;;;;68.28;22.02;;;9.80;99.90;;;;;;4995410;28;20169;-77
2021/12/17 15:35:55;;;;;;;65.90;23.00;;;9.60;99.90;;;;;;4995466;28;20193;-78
2021/12/17 15:38:23;;;;;;;57.22;21.90;;;9.70;99.90;;;;;;5004352;28;20216;-76
2021/12/17 15:40:50;;;;;;;63.05;22.20;;;9.60;99.90;;;;;;5002060;28;20166;-77
2021/12/17 15:43:17;;;;;;;66.30;23.02;;;9.50;99.90;;;;;;4996510;28;20166;-78
2021/12/17 15:45:47;;;;;;;59.78;21.15;;;9.70;99.90;;;;;;4996010;28;20350;-78
2021/12/17 15:48:15;;;;;;;63.10;22.17;;;9.70;99.90;;;;;;4992827;28;20247;-78
2021/12/17 15:50:41;;;;;;;70.28;22.27;;;9.80;99.90;;;;;;4979610;28;20675;-77
2021/12/17 15:53:07;;;;;;;60.58;21.50;;;9.80;99.90;;;;;;4994596;28;20181;-81